createdAt,value
2023-09-29T00:00:17.369Z,99322.58
2023-09-29T00:03:10.355Z,99319.98
2023-09-29T00:05:42.665Z,99318.44
2023-09-29T00:08:17.947Z,99318.46
2023-09-29T00:10:51.318Z,99315.19
2023-09-29T00:13:23.230Z,99320.58
2023-09-29T00:15:55.156Z,99321.34
2023-09-29T00:18:27.999Z,99325.27
2023-09-29T00:20:59.940Z,99317.98
2023-09-29T00:23:32.102Z,99319.42
2023-09-29T00:26:04.512Z,99319.66
2023-09-29T00:28:36.643Z,99316.90
2023-09-29T00:31:10.046Z,99319.78
2023-09-29T00:33:42.065Z,99319.85
2023-09-29T00:36:14.417Z,99320.44
2023-09-29T00:38:46.389Z,99319.45
2023-09-29T00:41:18.697Z,99325.63
2023-09-29T00:43:51.415Z,99324.82
2023-09-29T00:46:23.553Z,99327.04
2023-09-29T00:48:56.291Z,99328.48
2023-09-29T00:51:29.338Z,99327.98
2023-09-29T00:54:01.949Z,99329.26
2023-09-29T00:56:34.938Z,99327.39
2023-09-29T00:59:10.687Z,99325.73
2023-09-29T01:01:43.078Z,99324.54
2023-09-29T01:04:16.489Z,99323.34
2023-09-29T01:06:50.390Z,99325.17
2023-09-29T01:09:22.888Z,99323.80
2023-09-29T01:11:54.829Z,99323.87
2023-09-29T01:14:27.101Z,99323.39
2023-09-29T01:16:59.471Z,99323.11
2023-09-29T01:19:32.866Z,99325.95
2023-09-29T01:22:05.335Z,99325.44
2023-09-29T01:24:37.246Z,99329.01
2023-09-29T01:27:09.120Z,99323.61
2023-09-29T01:29:44.101Z,99324.16
2023-09-29T01:32:16.231Z,99319.48
2023-09-29T01:34:48.101Z,99323.40
2023-09-29T01:37:22.678Z,99321.54
2023-09-29T01:39:54.877Z,99321.62
2023-09-29T01:42:26.752Z,99324.84
2023-09-29T01:44:58.783Z,99323.13
2023-09-29T01:47:31.613Z,99324.20
2023-09-29T01:50:03.786Z,99329.30
2023-09-29T01:52:35.748Z,99330.02
2023-09-29T01:55:12.517Z,99329.02
2023-09-29T01:57:42.979Z,99330.48
2023-09-29T02:00:20.824Z,99336.65
2023-09-29T02:02:54.665Z,99335.14
2023-09-29T02:05:27.407Z,99332.54
2023-09-29T02:08:04.471Z,99332.59
2023-09-29T02:10:36.505Z,99335.08
2023-09-29T02:13:09.094Z,99331.45
2023-09-29T02:15:42.243Z,99333.41
2023-09-29T02:18:14.269Z,99334.46
2023-09-29T02:20:48.729Z,99334.48
2023-09-29T02:23:21.325Z,99333.82
2023-09-29T02:25:53.289Z,99330.75
2023-09-29T02:28:26.307Z,99331.66
2023-09-29T02:30:58.235Z,99332.92
2023-09-29T02:33:33.188Z,99331.35
2023-09-29T02:36:05.248Z,99326.81
2023-09-29T02:38:37.756Z,99327.73
2023-09-29T02:41:09.680Z,99326.38
2023-09-29T02:43:41.657Z,99326.39
2023-09-29T02:46:17.888Z,99327.33
2023-09-29T02:48:50.082Z,99326.99
2023-09-29T02:51:22.555Z,99325.66
2023-09-29T02:53:56.112Z,99323.27
2023-09-29T02:56:28.162Z,99324.70
2023-09-29T02:59:00.728Z,99317.35
2023-09-29T03:01:33.655Z,99313.84
2023-09-29T03:04:08.598Z,99311.74
2023-09-29T03:06:41.232Z,99311.77
2023-09-29T03:09:14.896Z,99315.11
2023-09-29T03:11:46.879Z,99308.63
2023-09-29T03:14:19.037Z,99303.77
2023-09-29T03:16:50.983Z,99304.53
2023-09-29T03:19:22.926Z,99300.89
2023-09-29T03:21:55.009Z,99299.19
2023-09-29T03:24:28.659Z,99300.98
2023-09-29T03:27:02.633Z,99299.96
2023-09-29T03:29:36.654Z,99299.46
2023-09-29T03:32:09.659Z,99296.15
2023-09-29T03:34:42.882Z,99294.59
2023-09-29T03:37:14.882Z,99292.34
2023-09-29T03:39:49.176Z,99294.86
2023-09-29T03:42:21.490Z,99291.73
2023-09-29T03:44:53.532Z,99287.52
2023-09-29T03:47:25.505Z,99289.82
2023-09-29T03:49:57.727Z,99292.31
2023-09-29T03:52:30.874Z,99292.48
2023-09-29T03:55:02.883Z,99288.14
2023-09-29T03:57:35.995Z,99286.56
2023-09-29T04:00:13.262Z,99281.16
2023-09-29T04:02:45.825Z,99279.28
2023-09-29T04:05:18.608Z,99281.09
2023-09-29T04:07:50.492Z,99280.81
2023-09-29T04:10:22.737Z,99278.92
2023-09-29T04:12:54.706Z,99282.27
2023-09-29T04:15:28.475Z,99278.08
2023-09-29T04:18:00.466Z,99282.83
2023-09-29T04:20:32.849Z,99279.86
2023-09-29T04:23:07.839Z,99282.67
2023-09-29T04:25:39.959Z,99284.60
2023-09-29T04:28:11.838Z,99285.86
2023-09-29T04:30:43.807Z,99284.83
2023-09-29T04:33:15.875Z,99284.14
2023-09-29T04:35:47.954Z,99285.90
2023-09-29T04:38:19.876Z,99285.91
2023-09-29T04:40:51.914Z,99283.27
2023-09-29T04:43:23.861Z,99285.23
2023-09-29T04:45:55.736Z,99286.27
2023-09-29T04:48:27.739Z,99284.89
2023-09-29T04:51:00.188Z,99287.89
2023-09-29T04:53:32.162Z,99287.91
2023-09-29T04:56:04.616Z,99290.17
2023-09-29T04:58:36.528Z,99291.21
2023-09-29T05:01:08.454Z,99290.70
2023-09-29T05:03:40.611Z,99293.50
2023-09-29T05:06:12.744Z,99290.52
2023-09-29T05:08:44.694Z,99293.15
2023-09-29T05:11:23.934Z,99293.65
2023-09-29T05:13:57.294Z,99294.33
2023-09-29T05:16:29.209Z,99296.44
2023-09-29T05:19:02.268Z,99297.23
2023-09-29T05:21:35.737Z,99295.75
2023-09-29T05:24:09.710Z,99297.41
2023-09-29T05:26:41.711Z,99299.27
2023-09-29T05:29:13.863Z,99299.34
2023-09-29T05:31:46.624Z,99303.83
2023-09-29T05:34:19.346Z,99301.72
2023-09-29T05:36:51.298Z,99303.98
2023-09-29T05:39:24.504Z,99302.80
2023-09-29T05:41:56.423Z,99300.98
2023-09-29T05:44:28.913Z,99299.77
2023-09-29T05:47:00.972Z,99302.65
2023-09-29T05:49:33.704Z,99302.34
2023-09-29T05:52:05.847Z,99306.84
2023-09-29T05:54:37.895Z,99306.56
2023-09-29T05:57:09.936Z,99304.21
2023-09-29T05:59:42.092Z,99307.48
2023-09-29T06:02:19.243Z,99306.31
2023-09-29T06:04:51.560Z,99306.93
2023-09-29T06:07:24.038Z,99311.89
2023-09-29T06:09:55.935Z,99310.73
2023-09-29T06:12:27.836Z,99314.80
2023-09-29T06:14:59.833Z,99314.86
2023-09-29T06:17:31.968Z,99316.30
2023-09-29T06:20:05.378Z,99317.73
2023-09-29T06:22:37.269Z,99317.42
2023-09-29T06:25:10.617Z,99316.91
2023-09-29T06:27:42.784Z,99317.15
2023-09-29T06:30:15.410Z,99322.26
2023-09-29T06:32:47.513Z,99320.33
2023-09-29T06:35:19.608Z,99320.52
2023-09-29T06:37:52.624Z,99324.89
2023-09-29T06:40:25.252Z,99326.98
2023-09-29T06:42:57.162Z,99327.13
2023-09-29T06:45:51.798Z,99329.24
2023-09-29T06:48:24.921Z,99331.80
2023-09-29T06:51:00.576Z,99332.98
2023-09-29T06:53:33.531Z,99337.14
2023-09-29T06:56:06.130Z,99336.04
2023-09-29T06:58:38.161Z,99333.46
2023-09-29T07:01:10.241Z,99338.26
2023-09-29T07:03:42.430Z,99337.58
2023-09-29T07:06:15.109Z,99337.58
2023-09-29T07:08:47.499Z,99337.55
2023-09-29T07:11:19.954Z,99334.71
2023-09-29T07:13:53.164Z,99338.20
2023-09-29T07:16:25.627Z,99336.95
2023-09-29T07:19:00.416Z,99336.14
2023-09-29T07:21:32.379Z,99337.48
2023-09-29T07:24:04.399Z,99333.66
2023-09-29T07:26:36.653Z,99336.02
2023-09-29T07:29:08.794Z,99339.23
2023-09-29T07:31:47.924Z,99336.77
2023-09-29T07:34:19.880Z,99338.79
2023-09-29T07:36:51.964Z,99340.38
2023-09-29T07:39:23.965Z,99339.95
2023-09-29T07:41:56.827Z,99342.88
2023-09-29T07:44:28.822Z,99341.77
2023-09-29T07:47:01.194Z,99342.23
2023-09-29T07:49:34.512Z,99342.33
2023-09-29T07:52:06.740Z,99344.85
2023-09-29T07:54:38.953Z,99342.66
2023-09-29T07:57:13.820Z,99341.94
2023-09-29T07:59:48.152Z,99341.38
2023-09-29T08:02:40.889Z,99338.20
2023-09-29T08:05:33.345Z,99334.55
2023-09-29T08:08:26.598Z,99329.98
2023-09-29T08:11:19.017Z,99327.88
2023-09-29T08:14:11.657Z,99327.11
2023-09-29T08:17:04.159Z,99327.95
2023-09-29T08:19:56.405Z,99326.83
2023-09-29T08:22:51.091Z,99328.35
2023-09-29T08:25:44.560Z,99326.16
2023-09-29T08:28:36.721Z,99320.34
2023-09-29T08:31:19.192Z,99326.18
2023-09-29T08:34:11.823Z,99322.83
2023-09-29T08:37:04.492Z,99323.05
2023-09-29T08:39:56.728Z,99319.22
2023-09-29T08:42:39.207Z,99311.74
2023-09-29T08:45:32.680Z,99313.89
2023-09-29T08:48:25.282Z,99316.97
2023-09-29T08:51:18.526Z,99305.42
2023-09-29T08:54:11.936Z,99299.13
2023-09-29T08:57:07.163Z,99295.72
2023-09-29T09:00:02.062Z,99294.46
2023-09-29T09:02:56.183Z,99292.27
2023-09-29T09:05:49.182Z,99294.79
2023-09-29T09:08:41.973Z,99289.66
2023-09-29T09:11:25.598Z,99293.06
2023-09-29T09:14:01.113Z,99292.51
2023-09-29T09:16:53.513Z,99293.96
2023-09-29T09:19:52.317Z,99294.99
2023-09-29T09:22:47.275Z,99290.63
2023-09-29T09:25:44.396Z,99291.16
2023-09-29T09:28:23.451Z,99291.05
2023-09-29T09:31:06.253Z,99294.21
2023-09-29T09:33:41.448Z,99294.83
2023-09-29T09:36:33.696Z,99292.39
2023-09-29T09:39:13.274Z,99290.09
2023-09-29T09:42:07.081Z,99288.23
2023-09-29T09:45:00.129Z,99289.12
2023-09-29T09:47:54.046Z,99287.80
2023-09-29T09:50:48.576Z,99284.36
2023-09-29T09:53:41.554Z,99284.20
2023-09-29T09:56:43.334Z,99283.56
2023-09-29T09:59:36.089Z,99286.80
2023-09-29T10:02:28.866Z,99284.30
2023-09-29T10:05:24.925Z,99282.73
2023-09-29T10:08:31.546Z,99281.60
2023-09-29T10:11:29.442Z,99280.52
2023-09-29T10:14:22.684Z,99280.77
2023-09-29T10:17:08.351Z,99282.67
2023-09-29T10:20:00.881Z,99280.23
2023-09-29T10:23:04.225Z,99277.05
2023-09-29T10:26:05.459Z,99273.17
2023-09-29T10:29:10.264Z,99273.51
2023-09-29T10:32:11.799Z,99271.89
2023-09-29T10:35:07.030Z,99270.09
2023-09-29T10:38:05.326Z,99269.86
2023-09-29T10:40:40.259Z,99264.77
2023-09-29T10:43:37.106Z,99259.15
2023-09-29T10:46:30.450Z,99256.04
2023-09-29T10:49:08.978Z,99256.95
2023-09-29T10:51:41.110Z,99259.48
2023-09-29T10:54:16.036Z,99255.31
2023-09-29T10:57:09.515Z,99248.11
2023-09-29T11:00:03.120Z,99242.58
2023-09-29T11:02:55.580Z,99239.48
2023-09-29T11:05:55.158Z,99233.23
2023-09-29T11:08:34.237Z,99238.05
2023-09-29T11:11:15.682Z,99228.92
2023-09-29T11:13:59.982Z,99228.00
2023-09-29T11:16:31.986Z,99226.08
2023-09-29T11:19:26.570Z,99219.54
2023-09-29T11:22:19.004Z,99216.29
2023-09-29T11:25:19.329Z,99220.01
2023-09-29T11:28:15.040Z,99211.42
2023-09-29T11:30:49.947Z,99210.38
2023-09-29T11:33:39.105Z,99203.40
2023-09-29T11:36:31.509Z,99202.46
2023-09-29T11:39:24.190Z,99200.22
2023-09-29T11:42:03.154Z,99196.21
2023-09-29T11:44:55.585Z,99193.65
2023-09-29T11:47:48.302Z,99191.58
2023-09-29T11:50:26.722Z,99190.81
2023-09-29T11:53:11.103Z,99187.15
2023-09-29T11:56:04.467Z,99179.44
2023-09-29T11:58:56.677Z,99176.77
2023-09-29T12:01:49.128Z,99173.14
2023-09-29T12:04:41.405Z,99167.55
2023-09-29T12:07:34.080Z,99159.95
2023-09-29T12:10:26.735Z,99156.55
2023-09-29T12:13:19.061Z,99154.15
2023-09-29T12:16:11.764Z,99154.46
2023-09-29T12:19:04.130Z,99156.92
2023-09-29T12:21:56.746Z,99149.38
2023-09-29T12:24:31.768Z,99147.47
2023-09-29T12:27:10.258Z,99142.02
2023-09-29T12:29:42.526Z,99139.38
2023-09-29T12:32:14.751Z,99136.66
2023-09-29T12:35:09.216Z,99137.35
2023-09-29T12:38:04.364Z,99134.20
2023-09-29T12:40:57.071Z,99129.71
2023-09-29T12:43:32.237Z,99124.06
2023-09-29T12:46:06.855Z,99125.50
2023-09-29T12:48:59.785Z,99124.46
2023-09-29T12:52:00.665Z,99118.80
2023-09-29T12:54:57.981Z,99111.48
2023-09-29T12:57:50.557Z,99105.70
2023-09-29T13:00:42.845Z,99099.60
2023-09-29T13:03:36.919Z,99097.86
2023-09-29T13:06:29.284Z,99091.11
2023-09-29T13:09:05.299Z,99088.02
2023-09-29T13:11:37.378Z,99085.12
2023-09-29T13:14:16.883Z,99083.17
2023-09-29T13:17:08.941Z,99081.64
2023-09-29T13:20:01.170Z,99076.84
2023-09-29T13:22:33.226Z,99073.23
2023-09-29T13:25:25.457Z,99073.43
2023-09-29T13:28:17.681Z,99071.59
2023-09-29T13:30:54.636Z,99071.49
2023-09-29T13:33:47.476Z,99060.33
2023-09-29T13:36:39.887Z,99062.45
2023-09-29T13:39:32.202Z,99060.28
2023-09-29T13:42:24.428Z,99062.74
2023-09-29T13:45:10.159Z,99060.11
2023-09-29T13:48:04.603Z,99062.41
2023-09-29T13:50:57.030Z,99062.17
2023-09-29T13:53:51.341Z,99058.15
2023-09-29T13:56:28.627Z,99060.50
2023-09-29T13:59:20.911Z,99055.20
2023-09-29T14:02:13.240Z,99052.30
2023-09-29T14:05:07.375Z,99057.52
2023-09-29T14:07:56.620Z,99054.16
2023-09-29T14:10:49.024Z,99053.56
2023-09-29T14:13:32.670Z,99048.05
2023-09-29T14:16:24.933Z,99045.00
2023-09-29T14:19:17.294Z,99050.13
2023-09-29T14:21:49.766Z,99042.05
2023-09-29T14:24:42.191Z,99038.36
2023-09-29T14:27:34.447Z,99040.42
2023-09-29T14:30:10.897Z,99037.92
2023-09-29T14:33:05.732Z,99040.73
2023-09-29T14:35:58.288Z,99040.44
2023-09-29T14:38:41.401Z,99037.52
2023-09-29T14:41:34.087Z,99039.13
2023-09-29T14:44:26.367Z,99039.65
2023-09-29T14:47:19.041Z,99038.95
2023-09-29T14:50:12.467Z,99037.45
2023-09-29T14:53:04.843Z,99033.00
2023-09-29T14:55:45.793Z,99038.11
2023-09-29T14:58:38.972Z,99033.48
2023-09-29T15:01:31.369Z,99030.62
2023-09-29T15:04:13.241Z,99033.13
2023-09-29T15:07:06.015Z,99034.90
2023-09-29T15:09:58.111Z,99037.77
2023-09-29T15:12:39.152Z,99035.82
2023-09-29T15:15:31.564Z,99039.42
2023-09-29T15:18:24.108Z,99036.98
2023-09-29T15:21:16.606Z,99036.21
2023-09-29T15:24:09.595Z,99040.84
2023-09-29T15:27:01.896Z,99041.91
2023-09-29T15:29:54.158Z,99039.80
2023-09-29T15:32:46.880Z,99042.52
2023-09-29T15:35:39.619Z,99040.94
2023-09-29T15:38:31.828Z,99045.16
2023-09-29T15:41:24.065Z,99044.33
2023-09-29T15:44:17.340Z,99047.59
2023-09-29T15:47:09.603Z,99046.23
2023-09-29T15:49:51.758Z,99046.98
2023-09-29T15:52:45.363Z,99048.48
2023-09-29T15:55:20.551Z,99047.50
2023-09-29T15:58:13.321Z,99049.46
2023-09-29T16:00:45.493Z,99049.91
2023-09-29T16:03:38.002Z,99054.11
2023-09-29T16:06:30.591Z,99047.90
2023-09-29T16:09:22.936Z,99054.16
2023-09-29T16:12:15.633Z,99056.02
2023-09-29T16:15:04.439Z,99056.69
2023-09-29T16:17:46.339Z,99060.31
2023-09-29T16:20:18.639Z,99062.59
2023-09-29T16:23:11.120Z,99066.04
2023-09-29T16:26:04.224Z,99063.64
2023-09-29T16:28:56.934Z,99065.48
2023-09-29T16:31:49.200Z,99068.13
2023-09-29T16:34:41.431Z,99070.84
2023-09-29T16:37:34.454Z,99069.46
2023-09-29T16:40:28.923Z,99067.34
2023-09-29T16:43:19.959Z,99070.86
2023-09-29T16:45:57.200Z,99071.77
2023-09-29T16:48:53.914Z,99071.38
2023-09-29T16:51:47.011Z,99075.39
2023-09-29T16:54:40.326Z,99075.23
2023-09-29T16:57:33.756Z,99080.80
2023-09-29T17:00:26.299Z,99075.76
2023-09-29T17:03:18.795Z,99076.30
2023-09-29T17:05:53.604Z,99072.42
2023-09-29T17:08:28.592Z,99080.19
2023-09-29T17:11:21.395Z,99079.95
2023-09-29T17:14:14.395Z,99077.45
2023-09-29T17:17:04.718Z,99079.98
2023-09-29T17:19:57.194Z,99079.61
2023-09-29T17:22:49.471Z,99084.27
2023-09-29T17:25:33.052Z,99089.46
2023-09-29T17:28:08.096Z,99092.38
2023-09-29T17:31:00.410Z,99090.08
2023-09-29T17:33:52.771Z,99092.61
2023-09-29T17:36:27.895Z,99086.14
2023-09-29T17:39:20.289Z,99084.48
2023-09-29T17:42:12.755Z,99082.52
2023-09-29T17:44:47.812Z,99078.95
2023-09-29T17:47:22.757Z,99080.13
2023-09-29T17:50:13.497Z,99078.52
2023-09-29T17:52:56.775Z,99075.34
2023-09-29T17:55:35.543Z,99080.77
2023-09-29T17:58:10.451Z,99082.52
2023-09-29T18:00:45.830Z,99084.80
2023-09-29T18:03:39.518Z,99083.30
2023-09-29T18:06:32.615Z,99088.96
2023-09-29T18:09:25.073Z,99084.48
2023-09-29T18:12:17.541Z,99087.75
2023-09-29T18:14:53.081Z,99088.11
2023-09-29T18:17:46.190Z,99090.82
2023-09-29T18:20:28.152Z,99090.85
2023-09-29T18:23:03.444Z,99093.75
2023-09-29T18:25:37.299Z,99097.10
2023-09-29T18:28:32.671Z,99096.80
2023-09-29T18:31:26.441Z,99099.32
2023-09-29T18:34:09.216Z,99093.11
2023-09-29T18:36:55.461Z,99095.58
2023-09-29T18:39:48.269Z,99096.98
2023-09-29T18:42:21.028Z,99097.02
2023-09-29T18:44:54.059Z,99098.66
2023-09-29T18:47:31.025Z,99096.61
2023-09-29T18:50:14.247Z,99093.25
2023-09-29T18:52:57.608Z,99094.64
2023-09-29T18:55:34.968Z,99093.88
2023-09-29T18:58:13.095Z,99092.55
2023-09-29T19:00:49.428Z,99093.02
2023-09-29T19:03:28.012Z,99094.90
2023-09-29T19:06:22.299Z,99095.75
2023-09-29T19:08:57.670Z,99099.11
2023-09-29T19:11:33.396Z,99097.23
2023-09-29T19:14:12.147Z,99089.63
2023-09-29T19:16:47.186Z,99093.23
2023-09-29T19:19:26.026Z,99094.52
2023-09-29T19:22:02.026Z,99091.81
2023-09-29T19:24:42.415Z,99089.61
2023-09-29T19:27:16.186Z,99088.22
2023-09-29T19:29:53.808Z,99086.98
2023-09-29T19:32:34.455Z,99092.02
2023-09-29T19:35:10.940Z,99091.16
2023-09-29T19:37:44.945Z,99089.44
2023-09-29T19:40:18.643Z,99084.70
2023-09-29T19:42:55.653Z,99092.46
2023-09-29T19:45:28.422Z,99092.44
2023-09-29T19:48:01.166Z,99093.98
2023-09-29T19:50:33.463Z,99094.48
2023-09-29T19:53:08.964Z,99090.18
2023-09-29T19:55:43.241Z,99089.81
2023-09-29T19:58:18.569Z,99086.95
2023-09-29T20:00:53.483Z,99088.84
2023-09-29T20:03:25.904Z,99086.26
2023-09-29T20:05:58.329Z,99084.83
2023-09-29T20:08:51.714Z,99088.08
2023-09-29T20:11:26.371Z,99089.16
2023-09-29T20:13:59.682Z,99089.88
2023-09-29T20:16:32.910Z,99089.70
2023-09-29T20:19:08.315Z,99087.41
2023-09-29T20:21:43.484Z,99089.37
2023-09-29T20:24:19.677Z,99088.80
2023-09-29T20:26:53.114Z,99091.91
2023-09-29T20:29:25.427Z,99089.29
2023-09-29T20:32:01.332Z,99087.49
2023-09-29T20:34:33.378Z,99086.77
2023-09-29T20:37:05.500Z,99086.32
2023-09-29T20:39:39.168Z,99089.73
2023-09-29T20:42:13.871Z,99087.17
2023-09-29T20:44:46.642Z,99085.34
2023-09-29T20:47:18.676Z,99085.65
2023-09-29T20:49:51.305Z,99083.89
2023-09-29T20:52:24.804Z,99086.86
2023-09-29T20:54:57.772Z,99088.55
2023-09-29T20:57:30.152Z,99086.86
2023-09-29T21:00:02.517Z,99090.11
2023-09-29T21:02:34.876Z,99086.38
2023-09-29T21:05:07.928Z,99086.52
2023-09-29T21:07:39.968Z,99083.79
2023-09-29T21:10:14.439Z,99084.23
2023-09-29T21:12:46.376Z,99087.57
2023-09-29T21:15:18.507Z,99088.52
2023-09-29T21:17:50.606Z,99086.81
2023-09-29T21:20:22.956Z,99086.03
2023-09-29T21:22:54.938Z,99084.58
2023-09-29T21:25:27.388Z,99085.36
2023-09-29T21:27:59.586Z,99085.08
2023-09-29T21:30:32.272Z,99082.55
2023-09-29T21:33:04.571Z,99081.75
2023-09-29T21:35:39.123Z,99080.23
2023-09-29T21:38:14.410Z,99083.55
2023-09-29T21:40:46.372Z,99086.16
2023-09-29T21:43:18.554Z,99084.37
2023-09-29T21:45:50.532Z,99083.77
2023-09-29T21:48:22.644Z,99081.57
2023-09-29T21:50:54.884Z,99084.64
2023-09-29T21:53:26.910Z,99085.79
2023-09-29T21:55:58.810Z,99079.94
2023-09-29T21:58:31.650Z,99083.90
2023-09-29T22:01:04.067Z,99088.54
2023-09-29T22:03:37.881Z,99089.11
2023-09-29T22:06:10.338Z,99086.90
2023-09-29T22:08:43.641Z,99084.69
2023-09-29T22:11:15.894Z,99081.98
2023-09-29T22:13:48.107Z,99079.79
2023-09-29T22:16:20.323Z,99080.77
2023-09-29T22:18:52.974Z,99080.16
2023-09-29T22:21:25.930Z,99076.55
2023-09-29T22:23:58.283Z,99076.60
2023-09-29T22:26:30.513Z,99073.90
2023-09-29T22:29:03.082Z,99075.73
2023-09-29T22:31:35.376Z,99073.48
2023-09-29T22:34:07.842Z,99073.36
2023-09-29T22:36:39.925Z,99071.51
2023-09-29T22:39:12.012Z,99066.38
2023-09-29T22:41:45.338Z,99070.86
2023-09-29T22:44:17.350Z,99068.64
2023-09-29T22:46:51.186Z,99067.98
2023-09-29T22:49:23.986Z,99071.20
2023-09-29T22:51:55.914Z,99071.64
2023-09-29T22:54:27.926Z,99073.48
2023-09-29T22:56:59.857Z,99075.81
2023-09-29T22:59:31.975Z,99078.68
2023-09-29T23:02:12.676Z,99076.97
2023-09-29T23:04:44.607Z,99076.39
2023-09-29T23:07:16.538Z,99075.27
2023-09-29T23:09:48.495Z,99071.64
2023-09-29T23:12:20.551Z,99071.91
2023-09-29T23:14:52.601Z,99072.19
2023-09-29T23:17:24.566Z,99066.30
2023-09-29T23:19:56.460Z,99067.96
2023-09-29T23:22:29.363Z,99074.20
2023-09-29T23:25:01.330Z,99072.85
2023-09-29T23:27:34.591Z,99074.14
2023-09-29T23:30:09.930Z,99070.52
2023-09-29T23:32:42.025Z,99067.45
2023-09-29T23:35:14.231Z,99071.21
2023-09-29T23:37:46.322Z,99068.60
2023-09-29T23:40:18.865Z,99064.96
2023-09-29T23:42:50.970Z,99067.98
2023-09-29T23:45:22.995Z,99065.20
2023-09-29T23:47:54.936Z,99070.70
2023-09-29T23:50:27.374Z,99070.79
2023-09-29T23:52:59.361Z,99070.79
2023-09-29T23:55:31.364Z,99074.52
2023-09-29T23:58:03.418Z,99071.93
